createdAt,value
2019-05-07T00:01:52.547Z,101233.09
2019-05-07T00:06:57.883Z,101234.12
2019-05-07T00:12:05.142Z,101238.38
2019-05-07T00:17:10.419Z,101234.61
2019-05-07T00:22:15.681Z,101231.50
2019-05-07T00:27:22.629Z,101229.70
2019-05-07T00:32:28.572Z,101232.36
2019-05-07T00:37:43.137Z,101237.13
2019-05-07T00:43:05.433Z,101227.53
2019-05-07T00:48:12.603Z,101236.74
2019-05-07T00:53:17.488Z,101231.27
2019-05-07T00:58:26.458Z,101230.88
2019-05-07T01:03:29.431Z,101233.13
2019-05-07T01:08:34.645Z,101230.45
2019-05-07T01:13:40.116Z,101230.11
2019-05-07T01:18:45.463Z,101227.80
2019-05-07T01:23:52.317Z,101230.31
2019-05-07T01:29:02.867Z,101231.81
2019-05-07T01:34:09.635Z,101222.12
2019-05-07T01:39:14.891Z,101217.22
2019-05-07T01:44:22.161Z,101219.09
2019-05-07T01:49:27.256Z,101226.09
2019-05-07T01:54:33.202Z,101223.16
2019-05-07T01:59:38.720Z,101222.55
2019-05-07T02:04:45.487Z,101225.91
2019-05-07T02:10:04.460Z,101224.61
2019-05-07T02:15:11.941Z,101223.17
2019-05-07T02:20:17.829Z,101227.94
2019-05-07T02:25:23.084Z,101224.11
2019-05-07T02:30:29.686Z,101225.91
2019-05-07T02:35:35.008Z,101222.97
2019-05-07T02:40:43.317Z,101214.64
2019-05-07T02:45:56.328Z,101218.52
2019-05-07T02:51:06.073Z,101215.70
2019-05-07T02:56:13.042Z,101213.21
2019-05-07T03:01:18.492Z,101221.72
2019-05-07T03:06:23.698Z,101221.38
2019-05-07T03:11:28.988Z,101213.39
2019-05-07T03:16:43.196Z,101221.59
2019-05-07T03:21:53.935Z,101218.24
2019-05-07T03:27:03.178Z,101220.63
2019-05-07T03:32:28.557Z,101224.41
2019-05-07T03:37:36.454Z,101223.68
2019-05-07T03:42:44.008Z,101225.88
2019-05-07T03:47:53.917Z,101234.14
2019-05-07T03:52:57.475Z,101233.81
2019-05-07T03:58:03.284Z,101226.54
2019-05-07T04:03:08.663Z,101232.68
2019-05-07T04:08:14.922Z,101231.74
2019-05-07T04:13:23.533Z,101224.04
2019-05-07T04:18:26.946Z,101228.55
2019-05-07T04:23:34.288Z,101224.48
2019-05-07T04:28:57.262Z,101227.94
2019-05-07T04:34:04.309Z,101232.11
2019-05-07T04:39:09.655Z,101235.66
2019-05-07T04:44:15.019Z,101220.39
2019-05-07T04:49:23.588Z,101234.38
2019-05-07T04:54:27.267Z,101230.64
2019-05-07T04:59:33.033Z,101228.55
2019-05-07T05:04:38.706Z,101230.80
2019-05-07T05:09:44.272Z,101229.92
2019-05-07T05:14:49.382Z,101230.73
2019-05-07T05:19:56.150Z,101236.92
2019-05-07T05:25:14.928Z,101234.86
2019-05-07T05:30:32.711Z,101239.27
2019-05-07T05:35:38.619Z,101228.54
2019-05-07T05:40:44.821Z,101225.85
2019-05-07T05:45:53.038Z,101234.13
2019-05-07T05:50:59.755Z,101239.58
2019-05-07T05:56:12.812Z,101230.30
2019-05-07T06:01:36.243Z,101234.46
2019-05-07T06:06:46.201Z,101237.06
2019-05-07T06:11:53.094Z,101243.84
2019-05-07T06:17:16.167Z,101251.88
2019-05-07T06:22:38.225Z,101233.80
2019-05-07T06:27:43.466Z,101240.80
2019-05-07T06:32:48.695Z,101236.77
2019-05-07T06:37:53.912Z,101251.77
2019-05-07T06:43:03.108Z,101237.88
2019-05-07T06:48:07.994Z,101238.16
2019-05-07T06:53:13.277Z,101244.66
2019-05-07T06:58:18.617Z,101236.09
2019-05-07T07:03:28.275Z,101240.90
2019-05-07T07:08:35.162Z,101237.80
2019-05-07T07:13:42.551Z,101237.43
2019-05-07T07:18:52.069Z,101244.02
2019-05-07T07:23:54.526Z,101236.28
2019-05-07T07:29:01.948Z,101240.87
2019-05-07T07:34:07.784Z,101241.20
2019-05-07T07:39:12.938Z,101238.52
2019-05-07T07:44:18.234Z,101243.72
2019-05-07T07:49:23.869Z,101237.11
2019-05-07T07:54:29.316Z,101236.14
2019-05-07T07:59:39.142Z,101227.08
2019-05-07T08:04:44.747Z,101234.16
2019-05-07T08:09:51.898Z,101241.87
2019-05-07T08:15:13.557Z,101244.79
2019-05-07T08:20:07.296Z,101246.34
2019-05-07T08:25:14.062Z,101249.87
2019-05-07T08:30:22.414Z,101233.91
2019-05-07T08:35:37.746Z,101245.33
2019-05-07T08:40:43.196Z,101246.63
2019-05-07T08:45:52.728Z,101229.16
2019-05-07T08:50:58.176Z,101233.63
2019-05-07T08:56:03.544Z,101239.34
2019-05-07T09:01:08.903Z,101244.02
2019-05-07T09:06:14.970Z,101244.33
2019-05-07T09:11:22.939Z,101248.30
2019-05-07T09:16:27.621Z,101235.27
2019-05-07T09:21:35.255Z,101243.36
2019-05-07T09:26:52.381Z,101247.95
2019-05-07T09:32:15.244Z,101253.13
2019-05-07T09:37:28.122Z,101252.12
2019-05-07T09:42:33.630Z,101242.19
2019-05-07T09:47:39.097Z,101254.78
2019-05-07T09:52:44.566Z,101253.14
2019-05-07T09:57:49.772Z,101262.77
2019-05-07T10:02:56.745Z,101272.39
2019-05-07T10:08:02.272Z,101284.67
2019-05-07T10:13:25.861Z,101289.23
2019-05-07T10:18:32.130Z,101286.80
2019-05-07T10:23:38.006Z,101285.30
2019-05-07T10:28:43.989Z,101268.55
2019-05-07T10:33:49.410Z,101259.20
2019-05-07T10:38:54.977Z,101260.33
2019-05-07T10:44:02.422Z,101259.48
2019-05-07T10:49:12.294Z,101256.89
2019-05-07T10:54:18.869Z,101260.14
2019-05-07T10:59:24.159Z,101277.26
2019-05-07T11:04:40.304Z,101281.34
2019-05-07T11:09:36.784Z,101286.77
2019-05-07T11:14:42.041Z,101279.58
2019-05-07T11:19:47.291Z,101281.53
2019-05-07T11:24:52.503Z,101289.11
2019-05-07T11:29:57.737Z,101277.61
2019-05-07T11:35:05.446Z,101278.32
2019-05-07T11:40:12.966Z,101281.09
2019-05-07T11:45:19.722Z,101274.50
2019-05-07T11:50:26.488Z,101284.50
2019-05-07T11:55:31.687Z,101292.92
2019-05-07T12:00:44.491Z,101294.33
2019-05-07T12:05:49.790Z,101320.08
2019-05-07T12:10:55.337Z,101302.70
2019-05-07T12:16:02.687Z,101296.97
2019-05-07T12:21:18.353Z,101302.16
2019-05-07T12:26:15.096Z,101310.71
2019-05-07T12:31:22.473Z,101315.77
2019-05-07T12:36:28.178Z,101320.02
2019-05-07T12:41:34.374Z,101297.60
2019-05-07T12:46:42.112Z,101295.52
2019-05-07T12:51:57.383Z,101296.33
2019-05-07T12:57:02.693Z,101307.45
2019-05-07T13:02:33.418Z,101315.23
2019-05-07T13:07:24.319Z,101310.16
2019-05-07T13:12:29.634Z,101290.97
2019-05-07T13:17:34.861Z,101305.94
2019-05-07T13:22:40.234Z,101302.48
2019-05-07T13:27:46.134Z,101293.30
2019-05-07T13:32:52.590Z,101309.22
2019-05-07T13:38:05.284Z,101309.92
2019-05-07T13:43:12.265Z,101299.98
2019-05-07T13:48:22.361Z,101303.39
2019-05-07T13:53:27.792Z,101313.94
2019-05-07T13:58:33.105Z,101313.38
2019-05-07T14:03:38.511Z,101313.59
2019-05-07T14:08:45.588Z,101314.87
2019-05-07T14:13:52.264Z,101313.30
2019-05-07T14:18:58.206Z,101315.94
2019-05-07T14:24:03.817Z,101325.52
2019-05-07T14:29:09.207Z,101319.31
2019-05-07T14:34:16.309Z,101321.05
2019-05-07T14:39:22.026Z,101312.73
2019-05-07T14:44:31.763Z,101330.77
2019-05-07T14:49:37.346Z,101333.73
2019-05-07T14:54:43.140Z,101342.45
2019-05-07T14:59:48.496Z,101344.65
2019-05-07T15:04:53.966Z,101346.19
2019-05-07T15:09:59.367Z,101343.25
2019-05-07T15:15:09.632Z,101367.00
2019-05-07T15:20:15.671Z,101368.30
2019-05-07T15:25:22.689Z,101357.70
2019-05-07T15:30:32.474Z,101352.39
2019-05-07T15:35:38.503Z,101353.27
2019-05-07T15:40:43.910Z,101361.20
2019-05-07T15:45:49.260Z,101365.52
2019-05-07T15:50:54.614Z,101368.40
2019-05-07T15:56:01.788Z,101354.55
2019-05-07T16:01:08.461Z,101375.15
2019-05-07T16:06:13.920Z,101361.15
2019-05-07T16:11:23.226Z,101370.38
2019-05-07T16:16:28.766Z,101371.34
2019-05-07T16:21:33.868Z,101376.57
2019-05-07T16:26:39.124Z,101380.92
2019-05-07T16:31:44.827Z,101385.27
2019-05-07T16:36:50.180Z,101381.38
2019-05-07T16:41:55.479Z,101397.33
2019-05-07T16:47:02.678Z,101403.10
2019-05-07T16:52:07.715Z,101408.70
2019-05-07T16:57:24.186Z,101411.06
2019-05-07T17:02:32.126Z,101412.09
2019-05-07T17:07:49.190Z,101403.55
2019-05-07T17:12:54.485Z,101418.98
2019-05-07T17:17:59.769Z,101414.98
2019-05-07T17:23:05.480Z,101429.89
2019-05-07T17:28:12.632Z,101417.61
2019-05-07T17:33:18.131Z,101420.19
2019-05-07T17:38:23.549Z,101421.64
2019-05-07T17:43:28.950Z,101432.98
2019-05-07T17:48:34.392Z,101432.95
2019-05-07T17:53:40.056Z,101439.12
2019-05-07T17:58:45.723Z,101447.00
2019-05-07T18:03:52.312Z,101451.80
2019-05-07T18:08:57.765Z,101448.00
2019-05-07T18:14:02.944Z,101453.80
2019-05-07T18:19:08.401Z,101457.92
2019-05-07T18:24:16.845Z,101458.34
2019-05-07T18:29:22.599Z,101466.07
2019-05-07T18:34:28.448Z,101471.55
2019-05-07T18:39:33.937Z,101468.72
2019-05-07T18:44:41.594Z,101475.71
2019-05-07T18:49:46.586Z,101474.45
2019-05-07T18:54:52.117Z,101473.25
2019-05-07T18:59:57.863Z,101486.05
2019-05-07T19:05:03.332Z,101482.83
2019-05-07T19:10:09.128Z,101486.78
2019-05-07T19:15:15.098Z,101486.78
2019-05-07T19:20:21.811Z,101491.34
2019-05-07T19:25:27.469Z,101491.34
2019-05-07T19:30:32.778Z,101490.04
2019-05-07T19:35:41.857Z,101492.41
2019-05-07T19:40:47.259Z,101492.41
2019-05-07T19:45:52.723Z,101498.56
2019-05-07T19:50:57.879Z,101503.78
2019-05-07T19:56:05.064Z,101501.06
2019-05-07T20:01:12.221Z,101504.13
2019-05-07T20:06:18.219Z,101497.29
2019-05-07T20:11:25.029Z,101506.45
2019-05-07T20:16:32.400Z,101506.54
2019-05-07T20:21:37.123Z,101505.81
2019-05-07T20:26:43.207Z,101508.47
2019-05-07T20:31:50.212Z,101503.40
2019-05-07T20:36:55.581Z,101510.61
2019-05-07T20:42:02.962Z,101513.66
2019-05-07T20:47:07.813Z,101511.63
2019-05-07T20:52:13.205Z,101513.92
2019-05-07T20:57:22.402Z,101507.42
2019-05-07T21:02:41.787Z,101512.05
2019-05-07T21:07:34.743Z,101516.34
2019-05-07T21:12:42.262Z,101512.31
2019-05-07T21:17:47.023Z,101522.91
2019-05-07T21:22:52.106Z,101520.73
2019-05-07T21:27:57.454Z,101521.17
2019-05-07T21:33:02.854Z,101518.54
2019-05-07T21:38:08.235Z,101521.39
2019-05-07T21:43:14.187Z,101522.84
2019-05-07T21:48:22.127Z,101522.77
2019-05-07T21:53:37.797Z,101520.70
2019-05-07T21:58:53.868Z,101522.52
2019-05-07T22:03:58.986Z,101521.87
2019-05-07T22:09:07.205Z,101521.86
2019-05-07T22:14:13.133Z,101520.97
2019-05-07T22:19:18.609Z,101513.52
2019-05-07T22:24:23.851Z,101524.33
2019-05-07T22:29:29.012Z,101526.28
2019-05-07T22:34:42.353Z,101525.55
2019-05-07T22:39:49.575Z,101523.03
2019-05-07T22:44:59.127Z,101531.11
2019-05-07T22:50:05.267Z,101531.30
2019-05-07T22:55:13.924Z,101535.56
2019-05-07T23:00:22.715Z,101536.78
2019-05-07T23:05:28.210Z,101522.28
2019-05-07T23:10:33.758Z,101529.30
2019-05-07T23:15:39.274Z,101531.13
2019-05-07T23:20:45.242Z,101532.34
2019-05-07T23:25:52.375Z,101523.45
2019-05-07T23:30:57.698Z,101519.80
2019-05-07T23:36:03.294Z,101516.24
2019-05-07T23:41:12.769Z,101519.36
2019-05-07T23:46:18.281Z,101513.91
2019-05-07T23:51:23.789Z,101515.20
2019-05-07T23:56:29.121Z,101509.91
